sensor_id;sensor_type;location;lat;lon;timestamp;P1;durP1;ratioP1;P2;durP2;ratioP2
52494;SDS011;38405;53.212;5.660;2023-04-03T00:01:12;7.13;;;2.13;;
52494;SDS011;38405;53.212;5.660;2023-04-03T00:03:38;4.10;;;1.95;;
52494;SDS011;38405;53.212;5.660;2023-04-03T00:06:04;4.82;;;1.80;;
52494;SDS011;38405;53.212;5.660;2023-04-03T00:08:35;5.15;;;1.98;;
52494;SDS011;38405;53.212;5.660;2023-04-03T00:11:00;3.80;;;1.70;;
52494;SDS011;38405;53.212;5.660;2023-04-03T00:13:26;6.07;;;2.20;;
52494;SDS011;38405;53.212;5.660;2023-04-03T00:15:52;3.65;;;2.08;;
52494;SDS011;38405;53.212;5.660;2023-04-03T00:18:18;2.55;;;2.22;;
52494;SDS011;38405;53.212;5.660;2023-04-03T00:20:43;3.25;;;1.92;;
52494;SDS011;38405;53.212;5.660;2023-04-03T00:23:09;4.78;;;2.20;;
52494;SDS011;38405;53.212;5.660;2023-04-03T00:25:35;7.88;;;2.33;;
52494;SDS011;38405;53.212;5.660;2023-04-03T00:28:01;4.70;;;2.45;;
52494;SDS011;38405;53.212;5.660;2023-04-03T00:30:28;3.13;;;2.00;;
52494;SDS011;38405;53.212;5.660;2023-04-03T00:32:53;2.50;;;2.00;;
52494;SDS011;38405;53.212;5.660;2023-04-03T00:35:20;2.78;;;2.03;;
52494;SDS011;38405;53.212;5.660;2023-04-03T00:37:47;4.60;;;2.13;;
52494;SDS011;38405;53.212;5.660;2023-04-03T00:40:15;7.93;;;2.40;;
52494;SDS011;38405;53.212;5.660;2023-04-03T00:42:41;4.63;;;2.40;;
52494;SDS011;38405;53.212;5.660;2023-04-03T00:47:43;3.17;;;2.05;;
52494;SDS011;38405;53.212;5.660;2023-04-03T00:50:09;2.72;;;1.95;;
52494;SDS011;38405;53.212;5.660;2023-04-03T00:52:35;3.67;;;2.30;;
52494;SDS011;38405;53.212;5.660;2023-04-03T00:55:03;5.18;;;2.17;;
52494;SDS011;38405;53.212;5.660;2023-04-03T00:57:32;4.30;;;2.20;;
52494;SDS011;38405;53.212;5.660;2023-04-03T00:59:59;4.72;;;2.08;;
52494;SDS011;38405;53.212;5.660;2023-04-03T01:02:29;5.38;;;2.20;;
52494;SDS011;38405;53.212;5.660;2023-04-03T01:04:55;2.78;;;2.05;;
52494;SDS011;38405;53.212;5.660;2023-04-03T01:07:22;3.22;;;2.22;;
52494;SDS011;38405;53.212;5.660;2023-04-03T01:09:52;2.40;;;1.75;;
52494;SDS011;38405;53.212;5.660;2023-04-03T01:12:25;5.35;;;2.00;;
52494;SDS011;38405;53.212;5.660;2023-04-03T01:14:58;3.03;;;1.77;;
52494;SDS011;38405;53.212;5.660;2023-04-03T01:17:33;2.80;;;1.85;;
52494;SDS011;38405;53.212;5.660;2023-04-03T01:25:41;2.47;;;1.80;;
52494;SDS011;38405;53.212;5.660;2023-04-03T01:28:34;3.42;;;1.90;;
52494;SDS011;38405;53.212;5.660;2023-04-03T01:33:50;3.50;;;1.65;;
52494;SDS011;38405;53.212;5.660;2023-04-03T01:36:21;2.28;;;1.52;;
52494;SDS011;38405;53.212;5.660;2023-04-03T01:38:49;8.30;;;1.85;;
52494;SDS011;38405;53.212;5.660;2023-04-03T01:41:18;4.60;;;1.65;;
52494;SDS011;38405;53.212;5.660;2023-04-03T01:43:45;1.65;;;1.50;;
52494;SDS011;38405;53.212;5.660;2023-04-03T01:46:11;6.57;;;1.88;;
52494;SDS011;38405;53.212;5.660;2023-04-03T01:48:41;3.47;;;1.77;;
52494;SDS011;38405;53.212;5.660;2023-04-03T01:51:06;4.80;;;1.67;;
52494;SDS011;38405;53.212;5.660;2023-04-03T01:53:32;6.07;;;2.03;;
52494;SDS011;38405;53.212;5.660;2023-04-03T01:56:01;1.70;;;1.60;;
52494;SDS011;38405;53.212;5.660;2023-04-03T01:58:26;2.53;;;1.80;;
52494;SDS011;38405;53.212;5.660;2023-04-03T02:00:52;4.32;;;1.65;;
52494;SDS011;38405;53.212;5.660;2023-04-03T02:03:18;3.92;;;1.80;;
52494;SDS011;38405;53.212;5.660;2023-04-03T02:05:45;5.70;;;1.80;;
52494;SDS011;38405;53.212;5.660;2023-04-03T02:08:10;3.13;;;1.70;;
52494;SDS011;38405;53.212;5.660;2023-04-03T02:10:36;2.30;;;1.63;;
52494;SDS011;38405;53.212;5.660;2023-04-03T02:13:02;2.67;;;1.60;;
52494;SDS011;38405;53.212;5.660;2023-04-03T02:15:28;2.80;;;1.70;;
52494;SDS011;38405;53.212;5.660;2023-04-03T02:17:54;4.70;;;1.85;;
52494;SDS011;38405;53.212;5.660;2023-04-03T02:20:19;4.30;;;1.52;;
52494;SDS011;38405;53.212;5.660;2023-04-03T02:22:45;2.47;;;1.70;;
52494;SDS011;38405;53.212;5.660;2023-04-03T02:25:11;3.30;;;1.60;;
52494;SDS011;38405;53.212;5.660;2023-04-03T02:27:38;4.25;;;1.80;;
52494;SDS011;38405;53.212;5.660;2023-04-03T02:30:04;4.50;;;1.88;;
52494;SDS011;38405;53.212;5.660;2023-04-03T02:32:30;1.63;;;1.38;;
52494;SDS011;38405;53.212;5.660;2023-04-03T02:34:56;3.53;;;1.60;;
52494;SDS011;38405;53.212;5.660;2023-04-03T02:37:22;4.38;;;1.90;;
52494;SDS011;38405;53.212;5.660;2023-04-03T02:39:47;1.38;;;1.27;;
52494;SDS011;38405;53.212;5.660;2023-04-03T02:42:13;3.17;;;2.00;;
52494;SDS011;38405;53.212;5.660;2023-04-03T02:44:39;1.90;;;1.60;;
52494;SDS011;38405;53.212;5.660;2023-04-03T02:47:05;2.97;;;1.67;;
52494;SDS011;38405;53.212;5.660;2023-04-03T02:49:30;3.47;;;2.10;;
52494;SDS011;38405;53.212;5.660;2023-04-03T02:51:56;3.72;;;1.70;;
52494;SDS011;38405;53.212;5.660;2023-04-03T02:54:22;1.90;;;1.63;;
52494;SDS011;38405;53.212;5.660;2023-04-03T02:56:49;4.20;;;1.70;;
52494;SDS011;38405;53.212;5.660;2023-04-03T02:59:16;2.38;;;1.70;;
52494;SDS011;38405;53.212;5.660;2023-04-03T03:01:41;4.90;;;1.75;;
52494;SDS011;38405;53.212;5.660;2023-04-03T03:04:10;3.15;;;1.75;;
52494;SDS011;38405;53.212;5.660;2023-04-03T03:06:35;3.67;;;1.80;;
52494;SDS011;38405;53.212;5.660;2023-04-03T03:09:01;4.70;;;1.63;;
52494;SDS011;38405;53.212;5.660;2023-04-03T03:11:28;3.75;;;1.83;;
52494;SDS011;38405;53.212;5.660;2023-04-03T03:13:54;16.42;;;2.45;;
52494;SDS011;38405;53.212;5.660;2023-04-03T03:16:20;2.92;;;1.63;;
52494;SDS011;38405;53.212;5.660;2023-04-03T03:18:45;2.20;;;1.50;;
52494;SDS011;38405;53.212;5.660;2023-04-03T03:21:11;2.05;;;1.75;;
52494;SDS011;38405;53.212;5.660;2023-04-03T03:23:37;2.65;;;1.75;;
52494;SDS011;38405;53.212;5.660;2023-04-03T03:26:04;2.17;;;1.73;;
52494;SDS011;38405;53.212;5.660;2023-04-03T03:28:31;2.25;;;1.70;;
52494;SDS011;38405;53.212;5.660;2023-04-03T03:30:57;3.63;;;1.95;;
52494;SDS011;38405;53.212;5.660;2023-04-03T03:33:24;5.88;;;2.20;;
52494;SDS011;38405;53.212;5.660;2023-04-03T03:35:50;2.08;;;1.88;;
52494;SDS011;38405;53.212;5.660;2023-04-03T03:38:16;2.65;;;1.60;;
52494;SDS011;38405;53.212;5.660;2023-04-03T03:40:42;2.25;;;1.73;;
52494;SDS011;38405;53.212;5.660;2023-04-03T03:43:11;5.15;;;2.25;;
52494;SDS011;38405;53.212;5.660;2023-04-03T03:45:36;5.05;;;1.90;;
52494;SDS011;38405;53.212;5.660;2023-04-03T03:48:02;5.95;;;2.20;;
52494;SDS011;38405;53.212;5.660;2023-04-03T03:50:28;5.07;;;1.75;;
52494;SDS011;38405;53.212;5.660;2023-04-03T03:52:53;5.28;;;2.40;;
52494;SDS011;38405;53.212;5.660;2023-04-03T03:55:19;2.45;;;1.90;;
52494;SDS011;38405;53.212;5.660;2023-04-03T03:57:45;3.80;;;2.35;;
52494;SDS011;38405;53.212;5.660;2023-04-03T04:00:11;3.63;;;1.77;;
52494;SDS011;38405;53.212;5.660;2023-04-03T04:02:38;5.10;;;2.03;;
52494;SDS011;38405;53.212;5.660;2023-04-03T04:05:03;3.80;;;1.95;;
52494;SDS011;38405;53.212;5.660;2023-04-03T04:07:30;3.47;;;1.70;;
52494;SDS011;38405;53.212;5.660;2023-04-03T04:09:55;6.43;;;2.05;;
52494;SDS011;38405;53.212;5.660;2023-04-03T04:12:21;3.13;;;1.67;;
52494;SDS011;38405;53.212;5.660;2023-04-03T04:14:46;2.97;;;1.83;;
52494;SDS011;38405;53.212;5.660;2023-04-03T04:17:13;4.50;;;1.95;;
52494;SDS011;38405;53.212;5.660;2023-04-03T04:19:39;3.95;;;1.83;;
52494;SDS011;38405;53.212;5.660;2023-04-03T04:22:05;4.85;;;2.53;;
52494;SDS011;38405;53.212;5.660;2023-04-03T04:24:31;5.32;;;2.40;;
52494;SDS011;38405;53.212;5.660;2023-04-03T04:27:00;6.50;;;2.00;;
52494;SDS011;38405;53.212;5.660;2023-04-03T04:29:25;4.85;;;2.03;;
52494;SDS011;38405;53.212;5.660;2023-04-03T04:31:51;3.28;;;1.98;;
52494;SDS011;38405;53.212;5.660;2023-04-03T04:34:16;5.93;;;2.25;;
52494;SDS011;38405;53.212;5.660;2023-04-03T04:36:42;3.90;;;2.00;;
52494;SDS011;38405;53.212;5.660;2023-04-03T04:39:08;4.95;;;2.08;;
52494;SDS011;38405;53.212;5.660;2023-04-03T04:41:34;4.82;;;2.25;;
52494;SDS011;38405;53.212;5.660;2023-04-03T04:44:00;6.50;;;2.15;;
52494;SDS011;38405;53.212;5.660;2023-04-03T04:46:25;5.95;;;2.45;;
52494;SDS011;38405;53.212;5.660;2023-04-03T04:48:51;5.97;;;2.38;;
52494;SDS011;38405;53.212;5.660;2023-04-03T04:51:17;5.20;;;2.00;;
52494;SDS011;38405;53.212;5.660;2023-04-03T04:53:43;6.85;;;2.33;;
52494;SDS011;38405;53.212;5.660;2023-04-03T04:56:08;5.15;;;2.10;;
52494;SDS011;38405;53.212;5.660;2023-04-03T04:58:34;3.65;;;2.42;;
52494;SDS011;38405;53.212;5.660;2023-04-03T05:01:01;6.75;;;2.53;;
52494;SDS011;38405;53.212;5.660;2023-04-03T05:03:30;3.17;;;2.10;;
52494;SDS011;38405;53.212;5.660;2023-04-03T05:05:56;4.50;;;2.20;;
52494;SDS011;38405;53.212;5.660;2023-04-03T05:08:23;4.80;;;2.50;;
52494;SDS011;38405;53.212;5.660;2023-04-03T05:10:48;5.10;;;2.40;;
52494;SDS011;38405;53.212;5.660;2023-04-03T05:13:14;4.18;;;2.80;;
52494;SDS011;38405;53.212;5.660;2023-04-03T05:15:40;5.75;;;2.53;;
52494;SDS011;38405;53.212;5.660;2023-04-03T05:18:06;5.40;;;2.30;;
52494;SDS011;38405;53.212;5.660;2023-04-03T05:20:32;5.10;;;2.30;;
52494;SDS011;38405;53.212;5.660;2023-04-03T05:22:58;4.10;;;2.45;;
52494;SDS011;38405;53.212;5.660;2023-04-03T05:25:24;9.45;;;3.53;;
52494;SDS011;38405;53.212;5.660;2023-04-03T05:27:50;10.27;;;5.47;;
52494;SDS011;38405;53.212;5.660;2023-04-03T05:30:16;8.73;;;4.35;;
52494;SDS011;38405;53.212;5.660;2023-04-03T05:32:42;8.52;;;3.70;;
52494;SDS011;38405;53.212;5.660;2023-04-03T05:35:08;11.93;;;3.95;;
52494;SDS011;38405;53.212;5.660;2023-04-03T05:37:34;10.48;;;4.50;;
52494;SDS011;38405;53.212;5.660;2023-04-03T05:39:59;5.45;;;3.50;;
52494;SDS011;38405;53.212;5.660;2023-04-03T05:42:25;7.05;;;3.30;;
52494;SDS011;38405;53.212;5.660;2023-04-03T05:44:51;4.68;;;2.67;;
52494;SDS011;38405;53.212;5.660;2023-04-03T05:47:17;7.95;;;3.05;;
52494;SDS011;38405;53.212;5.660;2023-04-03T05:49:43;5.03;;;2.83;;
52494;SDS011;38405;53.212;5.660;2023-04-03T05:52:23;13.68;;;6.07;;
52494;SDS011;38405;53.212;5.660;2023-04-03T05:54:51;19.50;;;11.02;;
52494;SDS011;38405;53.212;5.660;2023-04-03T05:57:17;20.40;;;9.23;;
52494;SDS011;38405;53.212;5.660;2023-04-03T05:59:43;22.63;;;13.50;;
52494;SDS011;38405;53.212;5.660;2023-04-03T06:02:13;12.77;;;8.00;;
52494;SDS011;38405;53.212;5.660;2023-04-03T06:04:41;13.00;;;5.78;;
52494;SDS011;38405;53.212;5.660;2023-04-03T06:07:07;13.13;;;5.70;;
52494;SDS011;38405;53.212;5.660;2023-04-03T06:09:40;7.25;;;4.38;;
52494;SDS011;38405;53.212;5.660;2023-04-03T06:12:06;10.52;;;5.15;;
52494;SDS011;38405;53.212;5.660;2023-04-03T06:14:32;12.75;;;6.50;;
52494;SDS011;38405;53.212;5.660;2023-04-03T06:16:58;7.55;;;4.75;;
52494;SDS011;38405;53.212;5.660;2023-04-03T06:19:24;5.97;;;3.75;;
52494;SDS011;38405;53.212;5.660;2023-04-03T06:21:50;15.20;;;3.80;;
52494;SDS011;38405;53.212;5.660;2023-04-03T06:24:17;14.15;;;4.43;;
52494;SDS011;38405;53.212;5.660;2023-04-03T06:26:43;5.47;;;3.38;;
52494;SDS011;38405;53.212;5.660;2023-04-03T06:29:09;6.30;;;2.80;;
52494;SDS011;38405;53.212;5.660;2023-04-03T06:31:34;9.15;;;3.78;;
52494;SDS011;38405;53.212;5.660;2023-04-03T06:34:01;8.20;;;3.50;;
52494;SDS011;38405;53.212;5.660;2023-04-03T06:36:27;8.20;;;3.28;;
52494;SDS011;38405;53.212;5.660;2023-04-03T06:38:54;6.72;;;2.85;;
52494;SDS011;38405;53.212;5.660;2023-04-03T06:41:20;5.50;;;2.78;;
52494;SDS011;38405;53.212;5.660;2023-04-03T06:43:46;5.63;;;2.97;;
52494;SDS011;38405;53.212;5.660;2023-04-03T06:46:15;6.47;;;3.15;;
52494;SDS011;38405;53.212;5.660;2023-04-03T06:48:42;7.03;;;3.15;;
52494;SDS011;38405;53.212;5.660;2023-04-03T06:51:13;6.90;;;2.78;;
52494;SDS011;38405;53.212;5.660;2023-04-03T06:53:45;10.75;;;3.30;;
52494;SDS011;38405;53.212;5.660;2023-04-03T06:56:12;4.95;;;3.13;;
52494;SDS011;38405;53.212;5.660;2023-04-03T06:58:37;5.68;;;2.50;;
52494;SDS011;38405;53.212;5.660;2023-04-03T07:01:03;6.07;;;2.78;;
52494;SDS011;38405;53.212;5.660;2023-04-03T07:03:29;6.25;;;2.83;;
52494;SDS011;38405;53.212;5.660;2023-04-03T07:05:55;4.32;;;2.63;;
52494;SDS011;38405;53.212;5.660;2023-04-03T07:08:20;5.68;;;2.40;;
52494;SDS011;38405;53.212;5.660;2023-04-03T07:10:48;5.18;;;2.72;;
52494;SDS011;38405;53.212;5.660;2023-04-03T07:13:15;3.60;;;2.63;;
52494;SDS011;38405;53.212;5.660;2023-04-03T07:15:40;9.80;;;2.20;;
52494;SDS011;38405;53.212;5.660;2023-04-03T07:18:06;6.35;;;1.90;;
52494;SDS011;38405;53.212;5.660;2023-04-03T07:20:32;9.88;;;2.15;;
52494;SDS011;38405;53.212;5.660;2023-04-03T07:22:57;5.55;;;2.03;;
52494;SDS011;38405;53.212;5.660;2023-04-03T07:25:23;6.90;;;2.42;;
52494;SDS011;38405;53.212;5.660;2023-04-03T07:27:52;4.82;;;2.20;;
52494;SDS011;38405;53.212;5.660;2023-04-03T07:30:19;6.10;;;2.40;;
52494;SDS011;38405;53.212;5.660;2023-04-03T07:32:45;5.60;;;2.20;;
52494;SDS011;38405;53.212;5.660;2023-04-03T07:35:11;6.10;;;2.38;;
52494;SDS011;38405;53.212;5.660;2023-04-03T07:37:37;3.80;;;1.88;;
52494;SDS011;38405;53.212;5.660;2023-04-03T07:40:03;5.45;;;1.90;;
52494;SDS011;38405;53.212;5.660;2023-04-03T07:42:29;4.97;;;2.42;;
52494;SDS011;38405;53.212;5.660;2023-04-03T07:44:55;4.18;;;1.95;;
52494;SDS011;38405;53.212;5.660;2023-04-03T07:47:21;4.93;;;2.22;;
52494;SDS011;38405;53.212;5.660;2023-04-03T07:49:47;7.25;;;2.45;;
52494;SDS011;38405;53.212;5.660;2023-04-03T07:52:13;5.00;;;2.17;;
52494;SDS011;38405;53.212;5.660;2023-04-03T07:54:40;6.00;;;2.00;;
52494;SDS011;38405;53.212;5.660;2023-04-03T07:57:07;5.43;;;2.90;;
52494;SDS011;38405;53.212;5.660;2023-04-03T07:59:32;3.97;;;1.92;;
52494;SDS011;38405;53.212;5.660;2023-04-03T08:01:58;3.47;;;1.52;;
52494;SDS011;38405;53.212;5.660;2023-04-03T08:04:24;2.95;;;1.70;;
52494;SDS011;38405;53.212;5.660;2023-04-03T08:06:51;3.90;;;1.95;;
52494;SDS011;38405;53.212;5.660;2023-04-03T08:09:17;5.68;;;2.28;;
52494;SDS011;38405;53.212;5.660;2023-04-03T08:11:44;6.00;;;2.00;;
52494;SDS011;38405;53.212;5.660;2023-04-03T08:14:10;2.67;;;1.67;;
52494;SDS011;38405;53.212;5.660;2023-04-03T08:16:41;4.30;;;2.03;;
52494;SDS011;38405;53.212;5.660;2023-04-03T08:19:29;8.27;;;2.13;;
52494;SDS011;38405;53.212;5.660;2023-04-03T08:21:55;3.28;;;1.90;;
52494;SDS011;38405;53.212;5.660;2023-04-03T08:24:21;4.30;;;1.98;;
52494;SDS011;38405;53.212;5.660;2023-04-03T08:26:47;3.70;;;1.77;;
52494;SDS011;38405;53.212;5.660;2023-04-03T08:29:13;5.10;;;1.95;;
52494;SDS011;38405;53.212;5.660;2023-04-03T08:31:38;3.05;;;1.60;;
52494;SDS011;38405;53.212;5.660;2023-04-03T08:34:07;4.80;;;1.77;;
52494;SDS011;38405;53.212;5.660;2023-04-03T08:36:33;3.60;;;2.00;;
52494;SDS011;38405;53.212;5.660;2023-04-03T08:38:59;3.50;;;1.70;;
52494;SDS011;38405;53.212;5.660;2023-04-03T08:41:35;3.85;;;1.60;;
52494;SDS011;38405;53.212;5.660;2023-04-03T08:44:10;4.93;;;2.00;;
52494;SDS011;38405;53.212;5.660;2023-04-03T08:49:39;4.22;;;1.67;;
52494;SDS011;38405;53.212;5.660;2023-04-03T08:52:12;3.30;;;1.73;;
52494;SDS011;38405;53.212;5.660;2023-04-03T09:00:34;2.70;;;1.40;;
52494;SDS011;38405;53.212;5.660;2023-04-03T09:03:16;2.50;;;1.27;;
52494;SDS011;38405;53.212;5.660;2023-04-03T09:08:30;4.30;;;1.40;;
52494;SDS011;38405;53.212;5.660;2023-04-03T09:14:13;2.85;;;1.17;;
52494;SDS011;38405;53.212;5.660;2023-04-03T09:16:57;4.05;;;1.27;;
52494;SDS011;38405;53.212;5.660;2023-04-03T09:19:38;2.05;;;1.10;;
52494;SDS011;38405;53.212;5.660;2023-04-03T09:22:25;3.42;;;1.65;;
52494;SDS011;38405;53.212;5.660;2023-04-03T09:25:11;2.47;;;1.20;;
52494;SDS011;38405;53.212;5.660;2023-04-03T09:27:38;2.00;;;1.10;;
52494;SDS011;38405;53.212;5.660;2023-04-03T09:30:11;1.40;;;1.10;;
52494;SDS011;38405;53.212;5.660;2023-04-03T09:32:43;2.40;;;1.23;;
52494;SDS011;38405;53.212;5.660;2023-04-03T09:35:27;2.85;;;1.10;;
52494;SDS011;38405;53.212;5.660;2023-04-03T09:40:44;3.60;;;1.42;;
52494;SDS011;38405;53.212;5.660;2023-04-03T09:48:51;3.00;;;0.88;;
52494;SDS011;38405;53.212;5.660;2023-04-03T09:51:20;2.78;;;1.55;;
52494;SDS011;38405;53.212;5.660;2023-04-03T09:53:51;2.15;;;0.90;;
52494;SDS011;38405;53.212;5.660;2023-04-03T09:58:43;1.67;;;1.08;;
52494;SDS011;38405;53.212;5.660;2023-04-03T10:01:24;2.88;;;0.98;;
52494;SDS011;38405;53.212;5.660;2023-04-03T10:04:12;1.95;;;0.88;;
52494;SDS011;38405;53.212;5.660;2023-04-03T10:06:56;1.45;;;0.90;;
52494;SDS011;38405;53.212;5.660;2023-04-03T10:09:29;2.45;;;0.90;;
52494;SDS011;38405;53.212;5.660;2023-04-03T10:14:28;2.03;;;1.13;;
52494;SDS011;38405;53.212;5.660;2023-04-03T10:19:54;2.95;;;0.90;;
52494;SDS011;38405;53.212;5.660;2023-04-03T10:28:03;0.60;;;0.60;;
52494;SDS011;38405;53.212;5.660;2023-04-03T10:36:44;2.10;;;1.05;;
52494;SDS011;38405;53.212;5.660;2023-04-03T10:42:01;1.48;;;1.17;;
52494;SDS011;38405;53.212;5.660;2023-04-03T10:50:22;2.53;;;0.98;;
52494;SDS011;38405;53.212;5.660;2023-04-03T10:55:51;0.88;;;0.63;;
52494;SDS011;38405;53.212;5.660;2023-04-03T10:58:31;1.25;;;0.80;;
52494;SDS011;38405;53.212;5.660;2023-04-03T11:00:58;1.23;;;0.70;;
52494;SDS011;38405;53.212;5.660;2023-04-03T11:03:31;3.08;;;0.95;;
52494;SDS011;38405;53.212;5.660;2023-04-03T11:06:04;1.50;;;1.00;;
52494;SDS011;38405;53.212;5.660;2023-04-03T11:08:48;1.52;;;1.00;;
52494;SDS011;38405;53.212;5.660;2023-04-03T11:11:31;2.55;;;0.70;;
52494;SDS011;38405;53.212;5.660;2023-04-03T11:16:50;1.55;;;1.00;;
52494;SDS011;38405;53.212;5.660;2023-04-03T11:19:39;2.65;;;1.00;;
52494;SDS011;38405;53.212;5.660;2023-04-03T11:22:30;1.00;;;0.90;;
52494;SDS011;38405;53.212;5.660;2023-04-03T11:27:40;0.60;;;0.60;;
52494;SDS011;38405;53.212;5.660;2023-04-03T11:30:18;0.70;;;0.70;;
52494;SDS011;38405;53.212;5.660;2023-04-03T11:35:47;1.45;;;0.80;;
52494;SDS011;38405;53.212;5.660;2023-04-03T11:38:35;1.35;;;0.82;;
52494;SDS011;38405;53.212;5.660;2023-04-03T11:41:06;2.35;;;0.80;;
52494;SDS011;38405;53.212;5.660;2023-04-03T11:43:37;1.73;;;1.00;;
52494;SDS011;38405;53.212;5.660;2023-04-03T11:46:07;2.95;;;1.13;;
52494;SDS011;38405;53.212;5.660;2023-04-03T11:48:41;1.35;;;0.70;;
52494;SDS011;38405;53.212;5.660;2023-04-03T11:53:38;1.10;;;0.70;;
52494;SDS011;38405;53.212;5.660;2023-04-03T12:01:48;2.92;;;0.90;;
52494;SDS011;38405;53.212;5.660;2023-04-03T12:04:20;1.20;;;1.00;;
52494;SDS011;38405;53.212;5.660;2023-04-03T12:12:01;1.02;;;0.73;;
52494;SDS011;38405;53.212;5.660;2023-04-03T12:14:47;1.40;;;0.95;;
52494;SDS011;38405;53.212;5.660;2023-04-03T12:17:19;1.60;;;0.82;;
52494;SDS011;38405;53.212;5.660;2023-04-03T12:19:51;1.52;;;0.85;;
52494;SDS011;38405;53.212;5.660;2023-04-03T12:22:19;1.70;;;1.10;;
52494;SDS011;38405;53.212;5.660;2023-04-03T12:24:47;3.47;;;1.00;;
52494;SDS011;38405;53.212;5.660;2023-04-03T12:32:34;4.95;;;1.30;;
52494;SDS011;38405;53.212;5.660;2023-04-03T12:35:13;2.00;;;1.02;;
52494;SDS011;38405;53.212;5.660;2023-04-03T12:43:59;1.75;;;1.15;;
52494;SDS011;38405;53.212;5.660;2023-04-03T12:49:26;1.95;;;1.00;;
52494;SDS011;38405;53.212;5.660;2023-04-03T12:52:01;2.00;;;0.90;;
52494;SDS011;38405;53.212;5.660;2023-04-03T12:54:37;1.42;;;0.90;;
52494;SDS011;38405;53.212;5.660;2023-04-03T12:57:09;1.58;;;0.85;;
52494;SDS011;38405;53.212;5.660;2023-04-03T12:59:45;2.05;;;1.00;;
52494;SDS011;38405;53.212;5.660;2023-04-03T13:02:25;7.45;;;1.20;;
52494;SDS011;38405;53.212;5.660;2023-04-03T13:04:53;2.17;;;1.00;;
52494;SDS011;38405;53.212;5.660;2023-04-03T13:07:24;1.98;;;0.80;;
52494;SDS011;38405;53.212;5.660;2023-04-03T13:10:38;2.80;;;1.00;;
52494;SDS011;38405;53.212;5.660;2023-04-03T13:12:47;2.88;;;1.38;;
52494;SDS011;38405;53.212;5.660;2023-04-03T13:15:29;1.52;;;0.80;;
52494;SDS011;38405;53.212;5.660;2023-04-03T13:18:04;3.08;;;1.10;;
52494;SDS011;38405;53.212;5.660;2023-04-03T13:20:31;3.88;;;1.10;;
52494;SDS011;38405;53.212;5.660;2023-04-03T13:23:05;1.80;;;1.05;;
52494;SDS011;38405;53.212;5.660;2023-04-03T13:25:35;3.00;;;1.20;;
52494;SDS011;38405;53.212;5.660;2023-04-03T13:28:05;11.02;;;1.48;;
52494;SDS011;38405;53.212;5.660;2023-04-03T13:30:33;4.22;;;1.17;;
52494;SDS011;38405;53.212;5.660;2023-04-03T13:33:03;1.77;;;1.02;;
52494;SDS011;38405;53.212;5.660;2023-04-03T13:35:40;1.52;;;1.10;;
52494;SDS011;38405;53.212;5.660;2023-04-03T13:38:29;3.70;;;1.50;;
52494;SDS011;38405;53.212;5.660;2023-04-03T13:41:00;2.90;;;1.15;;
52494;SDS011;38405;53.212;5.660;2023-04-03T13:43:31;1.10;;;0.95;;
52494;SDS011;38405;53.212;5.660;2023-04-03T13:48:46;2.58;;;1.00;;
52494;SDS011;38405;53.212;5.660;2023-04-03T13:53:56;2.15;;;1.40;;
52494;SDS011;38405;53.212;5.660;2023-04-03T13:56:25;3.28;;;1.25;;
52494;SDS011;38405;53.212;5.660;2023-04-03T13:59:03;2.33;;;1.10;;
52494;SDS011;38405;53.212;5.660;2023-04-03T14:06:47;2.47;;;1.00;;
52494;SDS011;38405;53.212;5.660;2023-04-03T14:09:18;2.92;;;1.15;;
52494;SDS011;38405;53.212;5.660;2023-04-03T14:11:45;2.50;;;1.30;;
52494;SDS011;38405;53.212;5.660;2023-04-03T14:14:35;3.05;;;1.23;;
52494;SDS011;38405;53.212;5.660;2023-04-03T14:17:02;2.88;;;1.02;;
52494;SDS011;38405;53.212;5.660;2023-04-03T14:19:34;1.25;;;1.08;;
52494;SDS011;38405;53.212;5.660;2023-04-03T14:22:03;0.93;;;0.88;;
52494;SDS011;38405;53.212;5.660;2023-04-03T14:24:53;3.75;;;1.20;;
52494;SDS011;38405;53.212;5.660;2023-04-03T14:27:20;2.10;;;1.27;;
52494;SDS011;38405;53.212;5.660;2023-04-03T14:29:50;2.85;;;1.17;;
52494;SDS011;38405;53.212;5.660;2023-04-03T14:32:18;2.42;;;1.20;;
52494;SDS011;38405;53.212;5.660;2023-04-03T14:34:45;1.33;;;0.98;;
52494;SDS011;38405;53.212;5.660;2023-04-03T14:37:16;3.33;;;0.85;;
52494;SDS011;38405;53.212;5.660;2023-04-03T14:39:44;1.60;;;1.08;;
52494;SDS011;38405;53.212;5.660;2023-04-03T14:42:14;2.47;;;1.25;;
52494;SDS011;38405;53.212;5.660;2023-04-03T14:44:46;5.80;;;1.20;;
52494;SDS011;38405;53.212;5.660;2023-04-03T14:47:12;3.22;;;1.33;;
52494;SDS011;38405;53.212;5.660;2023-04-03T14:49:40;2.40;;;1.05;;
52494;SDS011;38405;53.212;5.660;2023-04-03T14:52:06;2.60;;;1.02;;
52494;SDS011;38405;53.212;5.660;2023-04-03T14:54:46;2.78;;;1.40;;
52494;SDS011;38405;53.212;5.660;2023-04-03T14:57:13;2.88;;;1.27;;
52494;SDS011;38405;53.212;5.660;2023-04-03T14:59:40;4.65;;;1.67;;
52494;SDS011;38405;53.212;5.660;2023-04-03T15:04:52;1.75;;;1.10;;
52494;SDS011;38405;53.212;5.660;2023-04-03T15:07:18;4.97;;;1.95;;
52494;SDS011;38405;53.212;5.660;2023-04-03T15:09:44;5.00;;;1.10;;
52494;SDS011;38405;53.212;5.660;2023-04-03T15:12:10;3.92;;;1.38;;
52494;SDS011;38405;53.212;5.660;2023-04-03T15:14:36;4.15;;;1.13;;
52494;SDS011;38405;53.212;5.660;2023-04-03T15:17:02;1.95;;;1.30;;
52494;SDS011;38405;53.212;5.660;2023-04-03T15:19:30;2.88;;;1.38;;
52494;SDS011;38405;53.212;5.660;2023-04-03T15:22:01;3.38;;;1.60;;
52494;SDS011;38405;53.212;5.660;2023-04-03T15:24:27;4.38;;;1.50;;
52494;SDS011;38405;53.212;5.660;2023-04-03T15:26:53;4.78;;;1.90;;
52494;SDS011;38405;53.212;5.660;2023-04-03T15:29:19;2.55;;;1.63;;
52494;SDS011;38405;53.212;5.660;2023-04-03T15:31:44;3.22;;;1.65;;
52494;SDS011;38405;53.212;5.660;2023-04-03T15:34:10;5.07;;;2.05;;
52494;SDS011;38405;53.212;5.660;2023-04-03T15:36:36;4.35;;;1.80;;
52494;SDS011;38405;53.212;5.660;2023-04-03T15:39:01;4.20;;;1.63;;
52494;SDS011;38405;53.212;5.660;2023-04-03T15:41:27;3.58;;;1.58;;
52494;SDS011;38405;53.212;5.660;2023-04-03T15:43:53;5.32;;;1.80;;
52494;SDS011;38405;53.212;5.660;2023-04-03T15:46:19;7.22;;;2.10;;
52494;SDS011;38405;53.212;5.660;2023-04-03T15:48:44;3.90;;;1.90;;
52494;SDS011;38405;53.212;5.660;2023-04-03T15:51:10;3.92;;;1.80;;
52494;SDS011;38405;53.212;5.660;2023-04-03T15:53:36;6.40;;;1.63;;
52494;SDS011;38405;53.212;5.660;2023-04-03T15:56:01;4.35;;;1.98;;
52494;SDS011;38405;53.212;5.660;2023-04-03T15:58:27;4.57;;;1.55;;
52494;SDS011;38405;53.212;5.660;2023-04-03T16:00:53;7.28;;;1.80;;
52494;SDS011;38405;53.212;5.660;2023-04-03T16:03:19;2.28;;;1.48;;
52494;SDS011;38405;53.212;5.660;2023-04-03T16:05:46;4.38;;;1.52;;
52494;SDS011;38405;53.212;5.660;2023-04-03T16:08:12;3.47;;;1.55;;
52494;SDS011;38405;53.212;5.660;2023-04-03T16:10:42;5.18;;;1.40;;
52494;SDS011;38405;53.212;5.660;2023-04-03T16:13:10;2.15;;;1.20;;
52494;SDS011;38405;53.212;5.660;2023-04-03T16:15:39;1.75;;;1.17;;
52494;SDS011;38405;53.212;5.660;2023-04-03T16:18:05;4.78;;;1.27;;
52494;SDS011;38405;53.212;5.660;2023-04-03T16:20:33;2.63;;;1.20;;
52494;SDS011;38405;53.212;5.660;2023-04-03T16:22:59;2.22;;;1.40;;
52494;SDS011;38405;53.212;5.660;2023-04-03T16:25:25;4.88;;;1.20;;
52494;SDS011;38405;53.212;5.660;2023-04-03T16:27:54;3.30;;;1.10;;
52494;SDS011;38405;53.212;5.660;2023-04-03T16:30:20;5.30;;;1.30;;
52494;SDS011;38405;53.212;5.660;2023-04-03T16:32:45;2.28;;;1.15;;
52494;SDS011;38405;53.212;5.660;2023-04-03T16:35:11;1.10;;;1.00;;
52494;SDS011;38405;53.212;5.660;2023-04-03T16:37:37;2.67;;;1.02;;
52494;SDS011;38405;53.212;5.660;2023-04-03T16:40:05;7.72;;;1.45;;
52494;SDS011;38405;53.212;5.660;2023-04-03T16:42:31;4.82;;;1.27;;
52494;SDS011;38405;53.212;5.660;2023-04-03T16:44:57;1.15;;;0.80;;
52494;SDS011;38405;53.212;5.660;2023-04-03T16:47:25;2.72;;;1.00;;
52494;SDS011;38405;53.212;5.660;2023-04-03T16:49:50;1.85;;;1.00;;
52494;SDS011;38405;53.212;5.660;2023-04-03T16:52:16;2.53;;;1.05;;